createdAt,value
2023-01-25T00:02:20.532Z,0.20
2023-01-25T00:04:49.401Z,0.26
2023-01-25T00:07:17.297Z,0.30
2023-01-25T00:09:45.342Z,0.40
2023-01-25T00:12:13.195Z,0.30
2023-01-25T00:14:41.106Z,0.40
2023-01-25T00:17:10.098Z,0.40
2023-01-25T00:19:37.852Z,0.34
2023-01-25T00:22:05.848Z,0.40
2023-01-25T00:24:33.788Z,0.40
2023-01-25T00:27:03.704Z,0.40
2023-01-25T00:29:32.540Z,0.40
2023-01-25T00:32:23.448Z,0.48
2023-01-25T00:34:52.568Z,0.50
2023-01-25T00:37:38.824Z,0.60
2023-01-25T00:40:12.879Z,0.50
2023-01-25T00:42:41.536Z,0.40
2023-01-25T00:45:12.996Z,0.30
2023-01-25T00:47:40.961Z,0.30
2023-01-25T00:50:10.343Z,0.20
2023-01-25T00:52:38.120Z,0.20
2023-01-25T00:55:07.244Z,0.20
2023-01-25T00:57:35.364Z,0.30
2023-01-25T01:00:06.030Z,0.38
2023-01-25T01:02:37.563Z,0.40
2023-01-25T01:05:06.836Z,0.40
2023-01-25T01:07:35.679Z,0.40
2023-01-25T01:10:05.631Z,0.40
2023-01-25T01:12:33.344Z,0.40
2023-01-25T01:15:01.430Z,0.40
2023-01-25T01:17:29.161Z,0.50
2023-01-25T01:19:57.535Z,0.54
2023-01-25T01:22:25.358Z,0.50
2023-01-25T01:24:53.055Z,0.40
2023-01-25T01:27:20.806Z,0.40
2023-01-25T01:29:50.757Z,0.30
2023-01-25T01:32:18.582Z,0.28
2023-01-25T01:34:46.543Z,0.28
2023-01-25T01:37:14.885Z,0.20
2023-01-25T01:39:51.822Z,0.20
2023-01-25T01:42:21.295Z,0.20
2023-01-25T01:44:54.704Z,0.20
2023-01-25T01:47:46.209Z,0.10
2023-01-25T01:50:24.920Z,0.10
2023-01-25T01:52:53.417Z,0.10
2023-01-25T01:55:24.302Z,0.10
2023-01-25T01:57:58.797Z,0.20
2023-01-25T02:00:37.568Z,0.20
2023-01-25T02:03:05.691Z,0.26
2023-01-25T02:05:56.880Z,0.30
2023-01-25T02:08:27.686Z,0.30
2023-01-25T02:10:56.492Z,0.30
2023-01-25T02:13:24.819Z,0.40
2023-01-25T02:15:56.800Z,0.50
2023-01-25T02:18:25.480Z,0.50
2023-01-25T02:20:58.068Z,0.60
2023-01-25T02:23:53.450Z,0.70
2023-01-25T02:26:24.004Z,0.70
2023-01-25T02:29:11.345Z,0.70
2023-01-25T02:31:46.473Z,0.60
2023-01-25T02:34:14.803Z,0.64
2023-01-25T02:36:42.735Z,0.60
2023-01-25T02:41:59.903Z,0.60
2023-01-25T02:44:34.597Z,0.60
2023-01-25T02:47:03.800Z,0.64
2023-01-25T02:49:36.584Z,0.70
2023-01-25T02:52:05.527Z,0.70
2023-01-25T02:54:33.636Z,0.80
2023-01-25T02:57:02.848Z,0.80
2023-01-25T02:59:30.652Z,0.70
2023-01-25T03:01:58.570Z,0.70
2023-01-25T03:04:26.751Z,0.70
2023-01-25T03:06:54.450Z,0.70
2023-01-25T03:09:23.549Z,0.80
2023-01-25T03:11:51.791Z,0.80
2023-01-25T03:14:21.029Z,0.80
2023-01-25T03:16:48.795Z,0.80
2023-01-25T03:19:16.973Z,0.84
2023-01-25T03:21:44.744Z,0.80
2023-01-25T03:24:12.831Z,0.80
2023-01-25T03:26:59.628Z,0.80
2023-01-25T03:29:27.954Z,0.90
2023-01-25T03:31:56.181Z,0.90
2023-01-25T03:34:24.056Z,0.90
2023-01-25T03:36:51.869Z,0.80
2023-01-25T03:39:22.366Z,0.80
2023-01-25T03:41:50.179Z,0.80
2023-01-25T03:44:17.962Z,0.80
2023-01-25T03:46:47.719Z,0.80
2023-01-25T03:49:15.702Z,0.90
2023-01-25T03:51:45.524Z,0.90
2023-01-25T03:54:13.847Z,0.96
2023-01-25T03:56:42.491Z,0.94
2023-01-25T03:59:12.592Z,1.00
2023-01-25T04:01:40.420Z,1.08
2023-01-25T04:04:08.228Z,1.00
2023-01-25T04:06:35.962Z,0.90
2023-01-25T04:09:06.439Z,0.90
2023-01-25T04:11:35.826Z,0.90
2023-01-25T04:14:03.651Z,0.90
2023-01-25T04:16:32.081Z,1.00
2023-01-25T04:18:59.908Z,1.00
2023-01-25T04:21:27.879Z,1.04
2023-01-25T04:23:56.251Z,1.00
2023-01-25T04:26:24.876Z,1.00
2023-01-25T04:28:52.712Z,1.00
2023-01-25T04:31:20.790Z,1.00
2023-01-25T04:33:50.591Z,1.00
2023-01-25T04:36:19.462Z,1.00
2023-01-25T04:38:47.629Z,1.10
2023-01-25T04:41:16.992Z,1.10
2023-01-25T04:43:44.795Z,1.02
2023-01-25T04:46:13.546Z,1.00
2023-01-25T04:48:42.173Z,1.00
2023-01-25T04:51:10.208Z,1.04
2023-01-25T04:53:38.055Z,1.10
2023-01-25T04:56:07.340Z,1.10
2023-01-25T04:58:38.859Z,1.20
2023-01-25T05:01:07.994Z,1.20
2023-01-25T05:03:36.369Z,1.20
2023-01-25T05:06:04.348Z,1.20
2023-01-25T05:08:32.144Z,1.20
2023-01-25T05:11:00.002Z,1.28
2023-01-25T05:13:27.688Z,1.30
2023-01-25T05:15:57.931Z,1.30
2023-01-25T05:18:29.069Z,1.28
2023-01-25T05:21:00.152Z,1.22
2023-01-25T05:23:28.321Z,1.28
2023-01-25T05:28:57.307Z,1.20
2023-01-25T05:31:25.698Z,1.20
2023-01-25T05:33:53.801Z,1.30
2023-01-25T05:36:23.707Z,1.30
2023-01-25T05:38:53.038Z,1.30
2023-01-25T05:41:20.870Z,1.30
2023-01-25T05:43:49.775Z,1.30
2023-01-25T05:46:18.015Z,1.30
2023-01-25T05:48:49.154Z,1.28
2023-01-25T05:51:18.507Z,1.30
2023-01-25T05:53:46.258Z,1.26
2023-01-25T05:56:14.052Z,1.26
2023-01-25T05:58:42.954Z,1.26
2023-01-25T06:01:11.999Z,1.28
2023-01-25T06:03:40.570Z,1.30
2023-01-25T06:06:08.910Z,1.30
2023-01-25T06:08:36.969Z,1.30
2023-01-25T06:11:10.765Z,1.30
2023-01-25T06:13:38.923Z,1.40
2023-01-25T06:16:09.545Z,1.50
2023-01-25T06:18:41.222Z,1.50
2023-01-25T06:21:10.000Z,1.50
2023-01-25T06:23:39.313Z,1.50
2023-01-25T06:26:15.887Z,1.40
2023-01-25T06:28:44.368Z,1.40
2023-01-25T06:31:18.168Z,1.40
2023-01-25T06:33:53.841Z,1.30
2023-01-25T06:36:23.619Z,1.30
2023-01-25T06:38:52.921Z,1.34
2023-01-25T06:41:21.511Z,1.40
2023-01-25T06:43:54.157Z,1.50
2023-01-25T06:46:25.031Z,1.50
2023-01-25T06:48:53.433Z,1.50
2023-01-25T06:51:21.599Z,1.50
2023-01-25T06:53:49.471Z,1.40
2023-01-25T06:56:23.047Z,1.40
2023-01-25T06:58:51.111Z,1.40
2023-01-25T07:01:27.332Z,1.50
2023-01-25T07:03:58.459Z,1.52
2023-01-25T07:06:34.278Z,1.60
2023-01-25T07:09:07.592Z,1.60
2023-01-25T07:11:37.119Z,1.60
2023-01-25T07:14:07.030Z,1.54
2023-01-25T07:16:38.758Z,1.50
2023-01-25T07:19:11.316Z,1.50
2023-01-25T07:21:39.351Z,1.60
2023-01-25T07:24:07.374Z,1.60
2023-01-25T07:26:35.759Z,1.60
2023-01-25T07:29:03.754Z,1.60
2023-01-25T07:31:32.790Z,1.50
2023-01-25T07:34:00.924Z,1.50
2023-01-25T07:36:29.709Z,1.50
2023-01-25T07:38:59.612Z,1.50
2023-01-25T07:41:28.023Z,1.50
2023-01-25T07:43:56.576Z,1.50
2023-01-25T07:46:27.497Z,1.44
2023-01-25T07:48:58.913Z,1.40
2023-01-25T07:51:28.025Z,1.40
2023-01-25T07:54:02.717Z,1.40
2023-01-25T07:56:34.889Z,1.40
2023-01-25T07:59:03.692Z,1.40
2023-01-25T08:01:35.232Z,1.40
2023-01-25T08:04:05.632Z,1.40
2023-01-25T08:06:39.062Z,1.40
2023-01-25T08:09:21.918Z,1.40
2023-01-25T08:11:49.781Z,1.40
2023-01-25T08:14:17.876Z,1.48
2023-01-25T08:16:45.586Z,1.40
2023-01-25T08:19:13.665Z,1.40
2023-01-25T08:21:41.613Z,1.40
2023-01-25T08:24:10.876Z,1.40
2023-01-25T08:26:39.521Z,1.50
2023-01-25T08:29:07.583Z,1.50
2023-01-25T08:31:37.004Z,1.40
2023-01-25T08:34:07.126Z,1.40
2023-01-25T08:36:35.370Z,1.50
2023-01-25T08:39:08.855Z,1.50
2023-01-25T08:41:37.115Z,1.50
2023-01-25T08:44:07.599Z,1.50
2023-01-25T08:46:35.562Z,1.50
2023-01-25T08:49:09.486Z,1.50
2023-01-25T08:51:37.374Z,1.50
2023-01-25T08:54:13.015Z,1.50
2023-01-25T08:56:43.526Z,1.60
2023-01-25T08:59:13.844Z,1.60
2023-01-25T09:01:41.722Z,1.60
2023-01-25T09:04:09.518Z,1.68
2023-01-25T09:06:38.206Z,1.70
2023-01-25T09:09:08.665Z,1.80
2023-01-25T09:11:38.207Z,1.90
2023-01-25T09:14:08.013Z,1.80
2023-01-25T09:16:37.127Z,1.90
2023-01-25T09:19:07.292Z,1.90
2023-01-25T09:21:39.384Z,1.90
2023-01-25T09:24:08.624Z,1.90
2023-01-25T09:26:42.894Z,1.90
2023-01-25T09:29:12.838Z,2.00
2023-01-25T09:31:43.500Z,2.00
2023-01-25T09:34:15.749Z,2.00
2023-01-25T09:36:46.450Z,1.90
2023-01-25T09:39:14.251Z,1.80
2023-01-25T09:42:13.980Z,1.70
2023-01-25T09:45:26.320Z,1.80
2023-01-25T09:48:11.100Z,1.90
2023-01-25T09:51:12.853Z,1.92
2023-01-25T09:53:52.703Z,2.00
2023-01-25T09:56:30.545Z,2.10
2023-01-25T09:59:11.214Z,2.10
2023-01-25T10:01:57.613Z,2.10
2023-01-25T10:04:42.719Z,2.10
2023-01-25T10:07:29.156Z,2.10
2023-01-25T10:10:16.484Z,2.20
2023-01-25T10:12:44.712Z,2.28
2023-01-25T10:15:24.843Z,2.30
2023-01-25T10:18:45.190Z,2.30
2023-01-25T10:21:25.733Z,2.30
2023-01-25T10:24:37.497Z,2.30
2023-01-25T10:27:44.147Z,2.30
2023-01-25T10:30:35.728Z,2.30
2023-01-25T10:33:15.654Z,2.40
2023-01-25T10:35:47.657Z,2.40
2023-01-25T10:38:35.504Z,2.40
2023-01-25T10:41:20.115Z,2.44
2023-01-25T10:43:48.454Z,2.48
2023-01-25T10:46:26.864Z,2.50
2023-01-25T10:48:57.956Z,2.50
2023-01-25T10:51:35.636Z,2.50
2023-01-25T10:54:14.192Z,2.50
2023-01-25T10:56:45.058Z,2.50
2023-01-25T10:59:24.734Z,2.50
2023-01-25T11:01:54.319Z,2.52
2023-01-25T11:04:45.995Z,2.50
2023-01-25T11:07:31.277Z,2.50
2023-01-25T11:10:00.536Z,2.50
2023-01-25T11:12:28.417Z,2.50
2023-01-25T11:15:25.881Z,2.58
2023-01-25T11:18:14.068Z,2.50
2023-01-25T11:20:41.832Z,2.50
2023-01-25T11:23:25.546Z,2.40
2023-01-25T11:25:53.650Z,2.40
2023-01-25T11:28:24.712Z,2.40
2023-01-25T11:30:54.196Z,2.40
2023-01-25T11:33:24.735Z,2.42
2023-01-25T11:36:33.495Z,2.40
2023-01-25T11:39:49.628Z,2.40
2023-01-25T11:42:28.723Z,2.40
2023-01-25T11:45:36.853Z,2.50
2023-01-25T11:48:46.712Z,2.60
2023-01-25T11:51:27.727Z,2.60
2023-01-25T11:54:23.319Z,2.60
2023-01-25T11:57:27.602Z,2.70
2023-01-25T12:00:36.352Z,2.70
2023-01-25T12:03:41.792Z,2.60
2023-01-25T12:06:23.322Z,2.60
2023-01-25T12:09:34.579Z,2.60
2023-01-25T12:12:35.458Z,2.60
2023-01-25T12:15:23.417Z,2.60
2023-01-25T12:18:41.271Z,2.70
2023-01-25T12:21:31.595Z,2.70
2023-01-25T12:24:34.428Z,2.70
2023-01-25T12:27:26.436Z,2.70
2023-01-25T12:30:18.564Z,2.78
2023-01-25T12:33:13.010Z,2.70
2023-01-25T12:35:54.724Z,2.70
2023-01-25T12:38:35.608Z,2.70
2023-01-25T12:41:20.645Z,2.70
2023-01-25T12:44:18.341Z,2.70
2023-01-25T12:47:17.171Z,2.80
2023-01-25T12:49:59.085Z,2.80
2023-01-25T12:52:36.218Z,2.70
2023-01-25T12:55:12.473Z,2.70
2023-01-25T12:58:02.211Z,2.62
2023-01-25T13:00:53.238Z,2.70
2023-01-25T13:03:57.187Z,2.70
2023-01-25T13:07:22.792Z,2.70
2023-01-25T13:10:04.385Z,2.70
2023-01-25T13:12:59.316Z,2.70
2023-01-25T13:15:40.266Z,2.70
2023-01-25T13:18:28.275Z,2.70
2023-01-25T13:20:59.445Z,2.70
2023-01-25T13:23:52.976Z,2.70
2023-01-25T13:26:28.454Z,2.70
2023-01-25T13:28:59.638Z,2.70
2023-01-25T13:31:53.594Z,2.70
2023-01-25T13:34:39.621Z,2.60
2023-01-25T13:37:20.197Z,2.60
2023-01-25T13:39:53.453Z,2.60
2023-01-25T13:42:37.393Z,2.70
2023-01-25T13:45:09.395Z,2.70
2023-01-25T13:47:38.693Z,2.70
2023-01-25T13:50:25.399Z,2.70
2023-01-25T13:53:05.340Z,2.70
2023-01-25T13:55:42.444Z,2.70
2023-01-25T13:58:23.601Z,2.70
2023-01-25T14:01:09.195Z,2.70
2023-01-25T14:03:45.611Z,2.70
2023-01-25T14:06:25.889Z,2.70
2023-01-25T14:08:58.332Z,2.70
2023-01-25T14:11:45.461Z,2.72
2023-01-25T14:14:30.733Z,2.70
2023-01-25T14:17:21.273Z,2.70
2023-01-25T14:19:59.609Z,2.80
2023-01-25T14:22:32.631Z,2.80
2023-01-25T14:25:13.130Z,2.80
2023-01-25T14:27:54.511Z,2.70
2023-01-25T14:30:35.416Z,2.68
2023-01-25T14:33:58.739Z,2.66
2023-01-25T14:36:31.520Z,2.66
2023-01-25T14:39:03.224Z,2.60
2023-01-25T14:41:37.215Z,2.60
2023-01-25T14:44:13.360Z,2.56
2023-01-25T14:46:42.349Z,2.50
2023-01-25T14:49:25.689Z,2.50
2023-01-25T14:52:05.681Z,2.50
2023-01-25T14:54:38.231Z,2.50
2023-01-25T14:57:21.826Z,2.50
2023-01-25T14:59:54.448Z,2.50
2023-01-25T15:03:00.050Z,2.50
2023-01-25T15:05:32.266Z,2.50
2023-01-25T15:08:09.212Z,2.44
2023-01-25T15:10:50.401Z,2.40
2023-01-25T15:13:26.513Z,2.40
2023-01-25T15:16:01.907Z,2.48
2023-01-25T15:18:51.410Z,2.50
2023-01-25T15:21:29.400Z,2.50
2023-01-25T15:24:05.118Z,2.40
2023-01-25T15:26:37.457Z,2.40
2023-01-25T15:29:29.400Z,2.40
2023-01-25T15:31:57.280Z,2.30
2023-01-25T15:34:30.524Z,2.30
2023-01-25T15:36:58.468Z,2.30
2023-01-25T15:39:28.857Z,2.30
2023-01-25T15:41:56.614Z,2.30
2023-01-25T15:44:25.199Z,2.20
2023-01-25T15:46:53.639Z,2.20
2023-01-25T15:49:27.794Z,2.20
2023-01-25T15:51:58.884Z,2.20
2023-01-25T15:54:26.771Z,2.24
2023-01-25T15:56:58.948Z,2.20
2023-01-25T15:59:29.735Z,2.20
2023-01-25T16:01:57.869Z,2.20
2023-01-25T16:04:26.733Z,2.20
2023-01-25T16:06:57.385Z,2.20
2023-01-25T16:09:31.984Z,2.20
2023-01-25T16:12:01.722Z,2.30
2023-01-25T16:14:31.650Z,2.30
2023-01-25T16:17:04.465Z,2.40
2023-01-25T16:19:33.949Z,2.34
2023-01-25T16:22:02.333Z,2.40
2023-01-25T16:24:30.327Z,2.40
2023-01-25T16:27:00.640Z,2.40
2023-01-25T16:29:28.360Z,2.40
2023-01-25T16:31:57.746Z,2.40
2023-01-25T16:34:28.733Z,2.30
2023-01-25T16:36:57.843Z,2.32
2023-01-25T16:39:28.430Z,2.32
2023-01-25T16:41:58.337Z,2.30
2023-01-25T16:44:26.354Z,2.30
2023-01-25T16:46:54.393Z,2.30
2023-01-25T16:49:27.910Z,2.30
2023-01-25T16:51:57.718Z,2.30
2023-01-25T16:54:29.211Z,2.40
2023-01-25T16:56:58.054Z,2.40
2023-01-25T16:59:27.011Z,2.40
2023-01-25T17:01:54.823Z,2.46
2023-01-25T17:04:22.925Z,2.40
2023-01-25T17:06:53.265Z,2.30
2023-01-25T17:09:24.776Z,2.30
2023-01-25T17:11:55.423Z,2.30
2023-01-25T17:14:23.739Z,2.32
2023-01-25T17:16:55.394Z,2.34
2023-01-25T17:19:23.663Z,2.40
2023-01-25T17:21:53.015Z,2.32
2023-01-25T17:24:22.855Z,2.30
2023-01-25T17:26:55.964Z,2.22
2023-01-25T17:29:26.162Z,2.20
2023-01-25T17:31:55.130Z,2.10
2023-01-25T17:34:24.516Z,2.10
2023-01-25T17:36:54.080Z,2.18
2023-01-25T17:39:22.924Z,2.20
2023-01-25T17:41:52.096Z,2.20
2023-01-25T17:44:23.434Z,2.20
2023-01-25T17:46:51.960Z,2.10
2023-01-25T17:49:22.547Z,2.00
2023-01-25T17:51:52.320Z,2.00
2023-01-25T17:54:20.704Z,2.10
2023-01-25T17:56:50.443Z,2.14
2023-01-25T17:59:18.594Z,2.20
2023-01-25T18:01:48.346Z,2.20
2023-01-25T18:04:19.387Z,2.20
2023-01-25T18:06:47.159Z,2.12
2023-01-25T18:09:15.959Z,2.00
2023-01-25T18:11:44.196Z,2.00
2023-01-25T18:14:16.728Z,2.00
2023-01-25T18:16:46.049Z,2.00
2023-01-25T18:19:14.062Z,2.00
2023-01-25T18:21:43.873Z,2.00
2023-01-25T18:24:15.067Z,2.00
2023-01-25T18:26:42.948Z,2.00
2023-01-25T18:29:55.232Z,2.00
2023-01-25T18:32:24.106Z,2.02
2023-01-25T18:34:53.055Z,2.00
2023-01-25T18:37:29.419Z,2.00
2023-01-25T18:39:57.823Z,2.10
2023-01-25T18:42:30.454Z,2.06
2023-01-25T18:44:59.059Z,1.92
2023-01-25T18:47:27.372Z,1.90
2023-01-25T18:49:55.935Z,1.80
2023-01-25T18:52:24.932Z,1.88
2023-01-25T18:54:55.630Z,1.90
2023-01-25T18:57:23.719Z,1.90
2023-01-25T18:59:52.654Z,1.90
2023-01-25T19:02:21.368Z,1.94
2023-01-25T19:04:50.652Z,2.00
2023-01-25T19:07:18.440Z,2.00
2023-01-25T19:09:48.919Z,2.10
2023-01-25T19:12:19.878Z,2.10
2023-01-25T19:14:49.251Z,2.10
2023-01-25T19:17:17.371Z,2.10
2023-01-25T19:19:47.559Z,2.10
2023-01-25T19:22:15.431Z,2.14
2023-01-25T19:24:43.154Z,2.20
2023-01-25T19:27:11.091Z,2.20
2023-01-25T19:29:41.490Z,2.20
2023-01-25T19:32:10.861Z,2.14
2023-01-25T19:34:41.813Z,2.08
2023-01-25T19:37:10.186Z,2.10
2023-01-25T19:39:38.302Z,2.00
2023-01-25T19:42:07.605Z,2.00
2023-01-25T19:44:35.319Z,2.00
2023-01-25T19:47:04.915Z,2.00
2023-01-25T19:49:32.807Z,2.00
2023-01-25T19:52:01.002Z,2.00
2023-01-25T19:54:29.257Z,2.00
2023-01-25T19:56:58.572Z,2.10
2023-01-25T19:59:27.682Z,2.10
2023-01-25T20:01:55.691Z,2.12
2023-01-25T20:04:25.081Z,2.20
2023-01-25T20:06:54.066Z,2.16
2023-01-25T20:09:27.892Z,2.10
2023-01-25T20:11:58.262Z,2.20
2023-01-25T20:14:26.444Z,2.30
2023-01-25T20:16:55.052Z,2.40
2023-01-25T20:19:22.780Z,2.60
2023-01-25T20:21:52.950Z,2.64
2023-01-25T20:24:20.948Z,2.70
2023-01-25T20:26:49.189Z,2.88
2023-01-25T20:29:17.034Z,3.00
2023-01-25T20:31:46.661Z,3.20
2023-01-25T20:34:23.907Z,3.40
2023-01-25T20:36:51.999Z,3.42
2023-01-25T20:39:23.087Z,3.40
2023-01-25T20:41:54.344Z,3.40
2023-01-25T20:44:22.267Z,3.30
2023-01-25T20:46:52.402Z,3.40
2023-01-25T20:49:20.442Z,3.50
2023-01-25T20:51:50.517Z,3.50
2023-01-25T20:54:18.345Z,3.50
2023-01-25T20:56:48.798Z,3.50
2023-01-25T20:59:19.611Z,3.50
2023-01-25T21:01:47.634Z,3.50
2023-01-25T21:04:20.270Z,3.50
2023-01-25T21:06:48.470Z,3.50
2023-01-25T21:09:17.439Z,3.38
2023-01-25T21:11:47.479Z,3.20
2023-01-25T21:14:17.165Z,3.10
2023-01-25T21:16:44.954Z,3.00
2023-01-25T21:19:13.174Z,3.00
2023-01-25T21:21:42.131Z,3.00
2023-01-25T21:24:12.247Z,3.00
2023-01-25T21:26:40.231Z,2.90
2023-01-25T21:29:08.164Z,2.90
2023-01-25T21:31:39.358Z,2.90
2023-01-25T21:34:09.444Z,2.90
2023-01-25T21:36:38.065Z,2.90
2023-01-25T21:39:06.002Z,2.90
2023-01-25T21:41:34.763Z,2.90
2023-01-25T21:44:22.817Z,2.90
2023-01-25T21:47:19.712Z,2.90
2023-01-25T21:49:58.309Z,3.00
2023-01-25T21:52:26.958Z,3.00
2023-01-25T21:54:55.159Z,3.00
2023-01-25T21:57:23.454Z,3.00
2023-01-25T21:59:53.956Z,3.00
2023-01-25T22:02:22.334Z,3.00
2023-01-25T22:04:50.193Z,3.00
2023-01-25T22:07:18.199Z,3.00
2023-01-25T22:09:46.200Z,3.00
2023-01-25T22:12:14.149Z,3.00
2023-01-25T22:14:42.726Z,3.00
2023-01-25T22:17:13.698Z,3.00
2023-01-25T22:19:41.411Z,3.00
2023-01-25T22:22:09.383Z,3.00
2023-01-25T22:24:38.645Z,2.94
2023-01-25T22:27:32.543Z,2.92
2023-01-25T22:30:00.334Z,3.00
2023-01-25T22:32:28.497Z,3.00
2023-01-25T22:34:58.951Z,3.00
2023-01-25T22:37:26.641Z,2.98
2023-01-25T22:39:55.159Z,2.90
2023-01-25T22:42:23.191Z,2.80
2023-01-25T22:44:51.342Z,2.70
2023-01-25T22:47:19.040Z,2.60
2023-01-25T22:49:46.868Z,2.50
2023-01-25T22:52:14.700Z,2.50
2023-01-25T22:54:43.111Z,2.60
2023-01-25T22:57:12.980Z,2.60
2023-01-25T22:59:41.105Z,2.70
2023-01-25T23:02:09.159Z,2.80
2023-01-25T23:04:37.863Z,2.80
2023-01-25T23:07:12.737Z,2.70
2023-01-25T23:09:40.997Z,2.70
2023-01-25T23:12:09.695Z,2.60
2023-01-25T23:14:54.116Z,2.50
2023-01-25T23:17:42.441Z,2.50
2023-01-25T23:20:13.640Z,2.50
2023-01-25T23:22:42.290Z,2.50
2023-01-25T23:25:12.183Z,2.42
2023-01-25T23:27:41.054Z,2.34
2023-01-25T23:30:11.050Z,2.22
2023-01-25T23:32:39.505Z,2.16
2023-01-25T23:35:09.272Z,2.10
2023-01-25T23:37:37.509Z,2.10
2023-01-25T23:40:10.327Z,2.10
2023-01-25T23:42:39.711Z,2.10
2023-01-25T23:45:09.502Z,2.14
2023-01-25T23:47:42.208Z,2.10
2023-01-25T23:50:11.842Z,2.10
2023-01-25T23:52:39.859Z,2.10
2023-01-25T23:55:09.268Z,2.00
2023-01-25T23:57:36.983Z,1.90
